createdAt,value
2023-02-09T00:00:04.667Z,8.60
2023-02-09T00:01:04.669Z,8.80
2023-02-09T00:02:04.727Z,8.30
2023-02-09T00:03:04.626Z,8.30
2023-02-09T00:04:04.610Z,8.20
2023-02-09T00:05:04.616Z,8.20
2023-02-09T00:06:04.595Z,8.80
2023-02-09T00:07:04.583Z,8.30
2023-02-09T00:08:04.570Z,8.40
2023-02-09T00:09:04.562Z,8.90
2023-02-09T00:10:04.561Z,8.80
2023-02-09T00:11:04.547Z,8.60
2023-02-09T00:12:04.533Z,7.90
2023-02-09T00:13:04.529Z,8.80
2023-02-09T00:14:04.513Z,9.00
2023-02-09T00:15:04.510Z,8.60
2023-02-09T00:16:04.569Z,8.40
2023-02-09T00:17:04.484Z,8.40
2023-02-09T00:18:04.462Z,8.60
2023-02-09T00:19:04.456Z,8.40
2023-02-09T00:20:04.452Z,8.50
2023-02-09T00:21:04.435Z,8.80
2023-02-09T00:22:04.452Z,8.80
2023-02-09T00:23:04.417Z,8.30
2023-02-09T00:24:04.408Z,8.30
2023-02-09T00:25:04.419Z,8.50
2023-02-09T00:26:04.391Z,8.10
2023-02-09T00:27:04.376Z,8.80
2023-02-09T00:28:04.397Z,8.30
2023-02-09T00:29:04.353Z,8.70
2023-02-09T00:30:04.352Z,9.10
2023-02-09T00:31:04.371Z,9.00
2023-02-09T00:32:04.444Z,8.60
2023-02-09T00:33:04.314Z,8.20
2023-02-09T00:34:04.311Z,8.70
2023-02-09T00:35:04.287Z,8.70
2023-02-09T00:36:04.285Z,8.70
2023-02-09T00:37:04.266Z,8.60
2023-02-09T00:38:04.247Z,8.10
2023-02-09T00:39:04.244Z,8.20
2023-02-09T00:40:04.227Z,8.50
2023-02-09T00:41:04.244Z,8.40
2023-02-09T00:42:04.206Z,8.60
2023-02-09T00:43:04.198Z,7.70
2023-02-09T00:44:04.188Z,8.40
2023-02-09T00:45:04.190Z,8.60
2023-02-09T00:46:04.201Z,8.60
2023-02-09T00:47:04.157Z,8.30
2023-02-09T00:48:04.141Z,9.10
2023-02-09T00:49:04.138Z,8.80
2023-02-09T00:50:04.122Z,8.30
2023-02-09T00:51:04.130Z,9.00
2023-02-09T00:52:04.114Z,8.50
2023-02-09T00:53:04.093Z,9.00
2023-02-09T00:54:04.077Z,8.90
2023-02-09T00:55:04.076Z,7.90
2023-02-09T00:56:04.075Z,8.70
2023-02-09T00:57:04.050Z,8.30
2023-02-09T00:58:04.039Z,8.80
2023-02-09T00:59:04.036Z,8.80
2023-02-09T01:00:04.014Z,8.60
2023-02-09T01:01:04.047Z,8.50
2023-02-09T01:02:03.998Z,8.60
2023-02-09T01:03:03.985Z,8.50
2023-02-09T01:04:03.972Z,7.90
2023-02-09T01:05:04.085Z,8.30
2023-02-09T01:06:03.956Z,8.60
2023-02-09T01:07:03.942Z,8.80
2023-02-09T01:08:03.926Z,9.00
2023-02-09T01:09:03.917Z,8.40
2023-02-09T01:10:03.910Z,9.00
2023-02-09T01:11:03.910Z,8.50
2023-02-09T01:12:03.881Z,8.40
2023-02-09T01:13:03.877Z,8.20
2023-02-09T01:14:03.871Z,8.30
2023-02-09T01:15:03.853Z,8.30
2023-02-09T01:16:03.852Z,8.40
2023-02-09T01:17:03.904Z,8.30
2023-02-09T01:18:03.817Z,9.20
2023-02-09T01:19:03.824Z,8.30
2023-02-09T01:20:03.794Z,8.50
2023-02-09T01:21:03.801Z,8.70
2023-02-09T01:22:03.773Z,8.60
2023-02-09T01:23:03.769Z,8.00
2023-02-09T01:24:03.754Z,8.40
2023-02-09T01:25:03.747Z,8.40
2023-02-09T01:26:03.764Z,8.60
2023-02-09T01:27:03.727Z,8.90
2023-02-09T01:28:03.738Z,8.30
2023-02-09T01:29:03.711Z,8.70
2023-02-09T01:30:03.702Z,8.90
2023-02-09T01:31:03.805Z,8.70
2023-02-09T01:32:03.865Z,8.50
2023-02-09T01:33:03.681Z,8.50
2023-02-09T01:34:03.688Z,9.10
2023-02-09T01:35:03.648Z,8.50
2023-02-09T01:36:03.656Z,8.80
2023-02-09T01:37:03.639Z,9.60
2023-02-09T01:38:03.606Z,9.50
2023-02-09T01:39:03.614Z,9.00
2023-02-09T01:40:03.587Z,8.60
2023-02-09T01:41:03.609Z,8.40
2023-02-09T01:42:03.586Z,8.40
2023-02-09T01:43:03.559Z,8.70
2023-02-09T01:44:03.544Z,8.60
2023-02-09T01:45:03.536Z,8.80
2023-02-09T01:46:03.656Z,8.20
2023-02-09T01:47:03.525Z,8.40
2023-02-09T01:48:03.507Z,8.70
2023-02-09T01:49:03.500Z,8.30
2023-02-09T01:50:03.487Z,8.10
2023-02-09T01:51:03.696Z,8.20
2023-02-09T01:52:03.461Z,8.20
2023-02-09T01:53:03.452Z,8.60
2023-02-09T01:54:03.448Z,7.70
2023-02-09T01:55:03.440Z,7.90
2023-02-09T01:56:03.432Z,8.90
2023-02-09T01:57:03.411Z,8.40
2023-02-09T01:58:03.396Z,8.30
2023-02-09T01:59:03.389Z,8.30
2023-02-09T02:00:03.383Z,8.30
2023-02-09T02:01:03.436Z,7.90
2023-02-09T02:02:03.388Z,8.20
2023-02-09T02:03:03.344Z,8.20
2023-02-09T02:04:03.330Z,7.90
2023-02-09T02:05:03.326Z,8.40
2023-02-09T02:06:03.321Z,8.40
2023-02-09T02:07:03.311Z,8.30
2023-02-09T02:08:03.287Z,8.60
2023-02-09T02:09:03.280Z,8.10
2023-02-09T02:10:03.264Z,8.10
2023-02-09T02:11:03.258Z,7.50
2023-02-09T02:12:03.257Z,8.00
2023-02-09T02:13:03.240Z,7.40
2023-02-09T02:14:03.228Z,8.60
2023-02-09T02:15:03.222Z,8.30
2023-02-09T02:16:03.257Z,8.30
2023-02-09T02:17:03.202Z,8.20
2023-02-09T02:18:03.188Z,8.20
2023-02-09T02:19:03.179Z,8.30
2023-02-09T02:20:03.161Z,7.70
2023-02-09T02:21:03.155Z,7.90
2023-02-09T02:22:03.144Z,8.60
2023-02-09T02:23:03.127Z,7.90
2023-02-09T02:24:03.118Z,7.90
2023-02-09T02:25:03.109Z,8.10
2023-02-09T02:26:03.091Z,8.00
2023-02-09T02:27:03.112Z,8.70
2023-02-09T02:28:03.126Z,8.00
2023-02-09T02:29:03.086Z,7.50
2023-02-09T02:30:03.051Z,8.30
2023-02-09T02:31:03.181Z,8.10
2023-02-09T02:32:03.039Z,8.20
2023-02-09T02:33:03.021Z,7.90
2023-02-09T02:34:03.038Z,7.90
2023-02-09T02:35:02.991Z,8.20
2023-02-09T02:36:03.004Z,8.10
2023-02-09T02:37:02.982Z,8.10
2023-02-09T02:38:02.968Z,7.70
2023-02-09T02:39:02.954Z,7.50
2023-02-09T02:40:02.944Z,8.00
2023-02-09T02:41:02.931Z,8.20
2023-02-09T02:42:02.944Z,8.20
2023-02-09T02:43:02.910Z,7.90
2023-02-09T02:44:02.899Z,7.80
2023-02-09T02:45:02.884Z,8.20
2023-02-09T02:46:02.920Z,7.80
2023-02-09T02:47:02.875Z,8.00
2023-02-09T02:48:02.864Z,8.40
2023-02-09T02:49:02.846Z,7.80
2023-02-09T02:50:02.850Z,7.70
2023-02-09T02:51:02.889Z,8.00
2023-02-09T02:52:02.846Z,7.70
2023-02-09T02:53:02.811Z,8.50
2023-02-09T02:54:02.803Z,8.30
2023-02-09T02:55:02.789Z,8.10
2023-02-09T02:56:02.780Z,7.90
2023-02-09T02:57:02.764Z,8.00
2023-02-09T02:58:02.771Z,8.10
2023-02-09T02:59:02.741Z,7.70
2023-02-09T03:00:02.741Z,8.90
2023-02-09T03:01:02.739Z,8.20
2023-02-09T03:02:02.720Z,9.30
2023-02-09T03:03:02.710Z,8.70
2023-02-09T03:04:02.700Z,8.60
2023-02-09T03:05:02.703Z,7.80
2023-02-09T03:06:02.684Z,8.70
2023-02-09T03:07:02.658Z,8.40
2023-02-09T03:08:02.662Z,8.50
2023-02-09T03:09:02.644Z,8.50
2023-02-09T03:10:03.399Z,7.90
2023-02-09T03:11:02.636Z,8.20
2023-02-09T03:12:02.614Z,7.60
2023-02-09T03:13:02.617Z,7.80
2023-02-09T03:14:02.592Z,7.70
2023-02-09T03:15:02.577Z,8.30
2023-02-09T03:16:02.649Z,8.50
2023-02-09T03:17:02.552Z,8.80
2023-02-09T03:18:02.557Z,8.00
2023-02-09T03:19:02.536Z,8.40
2023-02-09T03:20:02.535Z,7.90
2023-02-09T03:21:02.514Z,8.20
2023-02-09T03:22:02.505Z,8.50
2023-02-09T03:23:02.523Z,8.60
2023-02-09T03:24:02.494Z,8.30
2023-02-09T03:25:02.466Z,8.60
2023-02-09T03:26:02.461Z,7.30
2023-02-09T03:27:02.450Z,8.30
2023-02-09T03:28:02.552Z,8.10
2023-02-09T03:29:02.434Z,7.90
2023-02-09T03:30:02.443Z,7.80
2023-02-09T03:31:02.609Z,8.50
2023-02-09T03:32:02.461Z,8.30
2023-02-09T03:33:02.396Z,8.20
2023-02-09T03:34:02.378Z,8.40
2023-02-09T03:35:02.365Z,8.10
2023-02-09T03:36:02.363Z,8.90
2023-02-09T03:37:02.340Z,8.90
2023-02-09T03:38:02.353Z,8.70
2023-02-09T03:39:02.333Z,8.30
2023-02-09T03:40:02.312Z,8.70
2023-02-09T03:41:02.299Z,8.20
2023-02-09T03:42:02.289Z,8.80
2023-02-09T03:43:02.289Z,8.90
2023-02-09T03:44:02.276Z,8.90
2023-02-09T03:45:02.261Z,8.50
2023-02-09T03:46:02.248Z,8.40
2023-02-09T03:47:02.235Z,8.70
2023-02-09T03:48:02.250Z,8.70
2023-02-09T03:49:02.226Z,8.10
2023-02-09T03:50:02.236Z,8.50
2023-02-09T03:51:02.198Z,8.20
2023-02-09T03:52:02.195Z,8.60
2023-02-09T03:53:02.167Z,8.70
2023-02-09T03:54:02.178Z,8.80
2023-02-09T03:55:02.150Z,8.20
2023-02-09T03:56:02.133Z,8.80
2023-02-09T03:57:02.130Z,9.30
2023-02-09T03:58:02.120Z,8.50
2023-02-09T03:59:02.129Z,8.70
2023-02-09T04:00:02.136Z,9.00
2023-02-09T04:01:02.158Z,9.20
2023-02-09T04:02:02.117Z,8.60
2023-02-09T04:03:02.062Z,9.40
2023-02-09T04:04:02.098Z,9.30
2023-02-09T04:05:02.969Z,9.50
2023-02-09T04:06:02.032Z,9.30
2023-02-09T04:07:02.023Z,8.90
2023-02-09T04:08:02.004Z,9.40
2023-02-09T04:09:02.013Z,9.10
2023-02-09T04:10:01.993Z,8.90
2023-02-09T04:11:01.981Z,9.40
2023-02-09T04:12:01.969Z,9.20
2023-02-09T04:13:01.957Z,9.00
2023-02-09T04:14:01.966Z,8.70
2023-02-09T04:15:01.938Z,8.80
2023-02-09T04:16:01.984Z,9.50
2023-02-09T04:17:01.919Z,9.30
2023-02-09T04:18:01.902Z,8.90
2023-02-09T04:19:01.901Z,9.10
2023-02-09T04:20:01.880Z,9.10
2023-02-09T04:21:01.869Z,9.10
2023-02-09T04:22:01.856Z,8.60
2023-02-09T04:23:01.851Z,9.10
2023-02-09T04:24:01.842Z,9.30
2023-02-09T04:25:01.829Z,9.50
2023-02-09T04:26:01.816Z,8.90
2023-02-09T04:27:01.839Z,9.40
2023-02-09T04:28:01.815Z,9.20
2023-02-09T04:29:01.799Z,9.00
2023-02-09T04:30:01.779Z,9.50
2023-02-09T04:31:01.840Z,9.10
2023-02-09T04:32:01.779Z,9.20
2023-02-09T04:33:01.744Z,8.70
2023-02-09T04:34:01.738Z,9.30
2023-02-09T04:35:01.727Z,9.50
2023-02-09T04:36:01.712Z,9.20
2023-02-09T04:37:01.700Z,8.80
2023-02-09T04:38:01.687Z,9.40
2023-02-09T04:39:01.695Z,8.90
2023-02-09T04:40:01.665Z,8.60
2023-02-09T04:41:01.668Z,8.70
2023-02-09T04:42:01.654Z,8.70
2023-02-09T04:43:01.640Z,9.00
2023-02-09T04:44:01.632Z,9.40
2023-02-09T04:45:01.619Z,9.10
2023-02-09T04:46:01.803Z,8.30
2023-02-09T04:47:01.617Z,9.50
2023-02-09T04:48:01.608Z,9.00
2023-02-09T04:49:01.588Z,9.00
2023-02-09T04:50:01.568Z,9.00
2023-02-09T04:51:01.561Z,8.70
2023-02-09T04:52:01.582Z,9.00
2023-02-09T04:53:01.559Z,9.60
2023-02-09T04:54:01.560Z,9.30
2023-02-09T04:55:01.553Z,9.10
2023-02-09T04:56:01.540Z,8.40
2023-02-09T04:57:01.492Z,8.90
2023-02-09T04:58:01.483Z,9.20
2023-02-09T04:59:01.486Z,9.70
2023-02-09T05:00:01.457Z,9.30
2023-02-09T05:01:01.528Z,9.50
2023-02-09T05:02:01.435Z,8.80
2023-02-09T05:03:01.434Z,9.20
2023-02-09T05:04:01.432Z,9.00
2023-02-09T05:05:01.410Z,9.30
2023-02-09T05:06:01.408Z,9.20
2023-02-09T05:07:01.388Z,9.20
2023-02-09T05:08:01.373Z,8.90
2023-02-09T05:09:01.383Z,9.20
2023-02-09T05:10:01.388Z,8.90
2023-02-09T05:11:01.357Z,8.70
2023-02-09T05:12:01.340Z,8.90
2023-02-09T05:13:01.333Z,9.50
2023-02-09T05:14:01.328Z,9.20
2023-02-09T05:15:01.315Z,9.40
2023-02-09T05:16:01.296Z,8.90
2023-02-09T05:17:01.363Z,9.90
2023-02-09T05:18:01.274Z,9.30
2023-02-09T05:19:01.269Z,9.40
2023-02-09T05:20:01.279Z,8.70
2023-02-09T05:21:01.237Z,9.40
2023-02-09T05:22:01.233Z,8.60
2023-02-09T05:23:01.222Z,9.60
2023-02-09T05:24:01.220Z,8.80
2023-02-09T05:25:01.202Z,9.30
2023-02-09T05:26:01.202Z,8.90
2023-02-09T05:27:01.171Z,9.10
2023-02-09T05:28:01.211Z,9.60
2023-02-09T05:29:01.668Z,9.40
2023-02-09T05:30:01.162Z,10.10
2023-02-09T05:31:01.182Z,9.60
2023-02-09T05:32:01.158Z,9.50
2023-02-09T05:33:01.146Z,10.10
2023-02-09T05:34:01.131Z,9.50
2023-02-09T05:35:01.096Z,9.70
2023-02-09T05:36:01.079Z,10.40
2023-02-09T05:37:01.067Z,9.00
2023-02-09T05:38:01.081Z,9.60
2023-02-09T05:39:01.068Z,9.70
2023-02-09T05:40:01.053Z,9.50
2023-02-09T05:41:01.020Z,9.50
2023-02-09T05:42:01.018Z,9.40
2023-02-09T05:43:00.998Z,9.60
2023-02-09T05:44:01.036Z,9.90
2023-02-09T05:45:00.995Z,10.10
2023-02-09T05:46:01.023Z,9.30
2023-02-09T05:47:00.962Z,10.10
2023-02-09T05:48:00.947Z,10.00
2023-02-09T05:49:00.953Z,9.60
2023-02-09T05:50:00.941Z,10.10
2023-02-09T05:51:00.917Z,10.00
2023-02-09T05:52:00.915Z,10.10
2023-02-09T05:53:00.893Z,10.00
2023-02-09T05:54:00.899Z,9.90
2023-02-09T05:55:00.885Z,9.80
2023-02-09T05:56:00.868Z,10.50
2023-02-09T05:57:00.850Z,10.40
2023-02-09T05:58:00.846Z,10.30
2023-02-09T05:59:02.538Z,10.00
2023-02-09T06:00:00.826Z,10.30
2023-02-09T06:01:00.806Z,9.80
2023-02-09T06:02:00.825Z,10.20
2023-02-09T06:03:00.902Z,9.70
2023-02-09T06:04:00.779Z,9.80
2023-02-09T06:05:00.785Z,9.10
2023-02-09T06:06:00.755Z,9.40
2023-02-09T06:07:00.740Z,10.00
2023-02-09T06:08:00.740Z,9.70
2023-02-09T06:09:00.716Z,9.90
2023-02-09T06:10:00.728Z,9.60
2023-02-09T06:11:00.694Z,9.40
2023-02-09T06:12:00.691Z,9.60
2023-02-09T06:13:00.674Z,10.40
2023-02-09T06:14:00.676Z,9.70
2023-02-09T06:15:00.677Z,9.50
2023-02-09T06:16:00.737Z,9.70
2023-02-09T06:17:00.641Z,9.30
2023-02-09T06:18:00.629Z,10.10
2023-02-09T06:19:00.615Z,9.40
2023-02-09T06:20:00.628Z,10.00
2023-02-09T06:21:00.587Z,9.80
2023-02-09T06:22:00.585Z,10.00
2023-02-09T06:23:00.575Z,9.60
2023-02-09T06:24:00.563Z,10.50
2023-02-09T06:25:00.554Z,9.80
2023-02-09T06:26:00.541Z,10.40
2023-02-09T06:27:00.544Z,10.30
2023-02-09T06:28:00.575Z,9.70
2023-02-09T06:29:00.504Z,10.50
2023-02-09T06:30:00.545Z,9.40
2023-02-09T06:31:00.782Z,9.60
2023-02-09T06:32:00.595Z,9.90
2023-02-09T06:33:00.475Z,9.60
2023-02-09T06:34:01.047Z,9.40
2023-02-09T06:35:00.453Z,9.80
2023-02-09T06:36:00.451Z,10.10
2023-02-09T06:37:00.438Z,9.70
2023-02-09T06:38:00.424Z,9.50
2023-02-09T06:39:00.407Z,10.30
2023-02-09T06:40:00.519Z,9.90
2023-02-09T06:41:00.422Z,10.20
2023-02-09T06:42:00.375Z,9.70
2023-02-09T06:43:00.358Z,9.90
2023-02-09T06:44:00.360Z,10.00
2023-02-09T06:45:00.428Z,10.50
2023-02-09T06:46:00.398Z,10.10
2023-02-09T06:47:00.317Z,9.50
2023-02-09T06:48:00.308Z,10.00
2023-02-09T06:49:00.299Z,9.60
2023-02-09T06:50:00.318Z,10.30
2023-02-09T06:51:00.290Z,9.80
2023-02-09T06:52:00.284Z,9.50
2023-02-09T06:53:00.253Z,9.70
2023-02-09T06:54:00.250Z,9.40
2023-02-09T06:55:00.240Z,9.50
2023-02-09T06:56:00.233Z,9.40
2023-02-09T06:57:00.213Z,9.50
2023-02-09T06:58:00.204Z,10.00
2023-02-09T06:59:00.206Z,9.40
2023-02-09T07:00:00.197Z,9.40
2023-02-09T07:01:00.178Z,9.80
2023-02-09T07:02:00.281Z,10.30
2023-02-09T07:03:00.249Z,9.70
2023-02-09T07:04:00.239Z,10.50
2023-02-09T07:05:00.166Z,9.90
2023-02-09T07:06:00.130Z,9.80
2023-02-09T07:07:00.124Z,9.80
2023-02-09T07:08:00.116Z,10.20
2023-02-09T07:09:00.115Z,9.70
2023-02-09T07:10:00.097Z,10.00
2023-02-09T07:11:00.098Z,10.10
2023-02-09T07:12:00.070Z,9.50
2023-02-09T07:13:00.042Z,10.00
2023-02-09T07:14:00.047Z,9.90
2023-02-09T07:15:00.025Z,10.50
2023-02-09T07:16:00.118Z,9.30
2023-02-09T07:17:00.009Z,10.10
2023-02-09T07:17:59.999Z,9.60
2023-02-09T07:19:00.432Z,9.90
2023-02-09T07:19:59.971Z,10.30
2023-02-09T07:20:59.970Z,9.90
2023-02-09T07:21:59.950Z,9.90
2023-02-09T07:22:59.939Z,10.60
2023-02-09T07:23:59.972Z,10.20
2023-02-09T07:24:59.914Z,9.90
2023-02-09T07:25:59.923Z,10.10
2023-02-09T07:26:59.908Z,9.90
2023-02-09T07:27:59.913Z,9.90
2023-02-09T07:28:59.880Z,9.10
2023-02-09T07:30:01.051Z,10.30
2023-02-09T07:30:59.945Z,10.60
2023-02-09T07:31:59.871Z,9.90
2023-02-09T07:32:59.831Z,10.20
2023-02-09T07:33:59.821Z,10.30
2023-02-09T07:34:59.807Z,10.00
2023-02-09T07:35:59.813Z,10.60
2023-02-09T07:36:59.785Z,10.10
2023-02-09T07:37:59.864Z,9.90
2023-02-09T07:38:59.772Z,10.30
2023-02-09T07:39:59.759Z,10.50
2023-02-09T07:40:59.759Z,10.10
2023-02-09T07:41:59.738Z,10.10
2023-02-09T07:42:59.723Z,10.50
2023-02-09T07:43:59.754Z,10.10
2023-02-09T07:44:59.700Z,10.20
2023-02-09T07:45:59.766Z,10.40
2023-02-09T07:46:59.674Z,10.30
2023-02-09T07:47:59.677Z,10.50
2023-02-09T07:49:01.429Z,10.40
2023-02-09T07:49:59.652Z,10.00
2023-02-09T07:50:59.643Z,10.60
2023-02-09T07:51:59.629Z,10.40
2023-02-09T07:52:59.611Z,10.10
2023-02-09T07:53:59.608Z,10.40
2023-02-09T07:54:59.592Z,10.90
2023-02-09T07:55:59.599Z,9.90
2023-02-09T07:56:59.583Z,11.20
2023-02-09T07:57:59.565Z,10.20
2023-02-09T07:58:59.552Z,10.70
2023-02-09T07:59:59.540Z,10.40
2023-02-09T08:00:59.948Z,10.10
2023-02-09T08:01:59.720Z,9.90
2023-02-09T08:02:59.503Z,11.10
2023-02-09T08:03:59.497Z,10.70
2023-02-09T08:04:59.505Z,10.70
2023-02-09T08:05:59.509Z,10.40
2023-02-09T08:06:59.473Z,12.00
2023-02-09T08:07:59.455Z,10.00
2023-02-09T08:08:59.440Z,11.00
2023-02-09T08:09:59.433Z,10.50
2023-02-09T08:10:59.433Z,11.10
2023-02-09T08:11:59.500Z,10.60
2023-02-09T08:12:59.410Z,10.80
2023-02-09T08:13:59.388Z,11.50
2023-02-09T08:14:59.387Z,11.30
2023-02-09T08:15:59.380Z,10.50
2023-02-09T08:16:59.375Z,11.20
2023-02-09T08:17:59.348Z,11.50
2023-02-09T08:18:59.340Z,10.70
2023-02-09T08:19:59.326Z,11.20
2023-02-09T08:20:59.322Z,10.80
2023-02-09T08:21:59.314Z,10.50
2023-02-09T08:22:59.310Z,11.50
2023-02-09T08:23:59.290Z,10.50
2023-02-09T08:24:59.283Z,10.60
2023-02-09T08:25:59.263Z,11.20
2023-02-09T08:26:59.274Z,11.40
2023-02-09T08:27:59.271Z,11.10
2023-02-09T08:28:59.308Z,11.20
2023-02-09T08:29:59.220Z,11.50
2023-02-09T08:30:59.242Z,10.70
2023-02-09T08:31:59.285Z,10.60
2023-02-09T08:32:59.199Z,11.30
2023-02-09T08:33:59.194Z,10.90
2023-02-09T08:34:59.164Z,11.50
2023-02-09T08:35:59.159Z,11.60
2023-02-09T08:36:59.154Z,11.80
2023-02-09T08:37:59.159Z,12.40
2023-02-09T08:38:59.127Z,10.80
2023-02-09T08:39:59.117Z,10.30
2023-02-09T08:40:59.100Z,11.00
2023-02-09T08:41:59.109Z,11.00
2023-02-09T08:42:59.078Z,10.90
2023-02-09T08:43:59.081Z,11.10
2023-02-09T08:44:59.059Z,11.00
2023-02-09T08:45:59.189Z,11.50
2023-02-09T08:46:59.178Z,12.00
2023-02-09T08:47:59.037Z,11.20
2023-02-09T08:48:59.017Z,10.80
2023-02-09T08:49:59.011Z,11.80
2023-02-09T08:50:59.004Z,10.80
2023-02-09T08:51:59.004Z,11.10
2023-02-09T08:52:58.978Z,11.20
2023-02-09T08:53:58.968Z,11.70
2023-02-09T08:54:58.955Z,12.60
2023-02-09T08:55:58.952Z,11.60
2023-02-09T08:56:58.970Z,11.00
2023-02-09T08:57:58.925Z,11.80
2023-02-09T08:58:58.916Z,12.10
2023-02-09T08:59:58.904Z,11.10
2023-02-09T09:00:58.918Z,11.60
2023-02-09T09:01:58.900Z,12.40
2023-02-09T09:02:58.876Z,12.10
2023-02-09T09:03:58.944Z,12.30
2023-02-09T09:04:58.852Z,11.10
2023-02-09T09:05:58.850Z,11.40
2023-02-09T09:06:58.840Z,12.60
2023-02-09T09:07:58.832Z,11.80
2023-02-09T09:08:58.805Z,12.10
2023-02-09T09:09:58.796Z,12.20
2023-02-09T09:10:58.788Z,11.70
2023-02-09T09:11:58.793Z,11.80
2023-02-09T09:12:58.802Z,12.10
2023-02-09T09:13:58.768Z,11.50
2023-02-09T09:14:58.741Z,12.10
2023-02-09T09:15:58.739Z,11.80
2023-02-09T09:16:58.841Z,12.10
2023-02-09T09:17:58.723Z,11.80
2023-02-09T09:18:58.714Z,12.20
2023-02-09T09:19:58.690Z,12.20
2023-02-09T09:20:58.682Z,12.10
2023-02-09T09:21:58.688Z,12.20
2023-02-09T09:22:58.664Z,12.30
2023-02-09T09:23:58.654Z,11.90
2023-02-09T09:24:58.670Z,12.20
2023-02-09T09:25:58.661Z,12.20
2023-02-09T09:26:58.631Z,11.70
2023-02-09T09:27:58.643Z,12.10
2023-02-09T09:28:58.588Z,11.90
2023-02-09T09:29:58.584Z,11.50
2023-02-09T09:30:58.584Z,11.80
2023-02-09T09:31:58.594Z,12.40
2023-02-09T09:32:58.610Z,12.50
2023-02-09T09:33:58.555Z,12.50
2023-02-09T09:34:58.534Z,11.50
2023-02-09T09:35:58.522Z,12.40
2023-02-09T09:36:58.509Z,11.80
2023-02-09T09:37:58.564Z,12.60
2023-02-09T09:38:58.489Z,11.60
2023-02-09T09:39:58.561Z,11.80
2023-02-09T09:40:58.472Z,10.90
2023-02-09T09:41:58.457Z,11.90
2023-02-09T09:42:58.451Z,12.00
2023-02-09T09:43:58.434Z,12.60
2023-02-09T09:44:58.453Z,12.60
2023-02-09T09:45:58.487Z,12.30
2023-02-09T09:46:58.397Z,12.50
2023-02-09T09:47:58.466Z,12.60
2023-02-09T09:48:58.379Z,11.10
2023-02-09T09:49:58.384Z,12.90
2023-02-09T09:50:58.363Z,12.30
2023-02-09T09:51:58.351Z,12.20
2023-02-09T09:52:58.361Z,12.60
2023-02-09T09:53:58.328Z,12.20
2023-02-09T09:54:58.321Z,12.10
2023-02-09T09:55:58.333Z,12.90
2023-02-09T09:56:58.299Z,12.70
2023-02-09T09:57:58.292Z,12.50
2023-02-09T09:58:58.268Z,12.70
2023-02-09T09:59:58.272Z,12.80
2023-02-09T10:00:58.311Z,12.70
2023-02-09T10:01:58.242Z,12.70
2023-02-09T10:02:58.240Z,11.80
2023-02-09T10:03:58.227Z,12.40
2023-02-09T10:04:58.240Z,12.10
2023-02-09T10:05:58.195Z,12.50
2023-02-09T10:06:58.186Z,12.20
2023-02-09T10:07:58.187Z,12.20
2023-02-09T10:08:58.157Z,12.50
2023-02-09T10:09:58.153Z,11.70
2023-02-09T10:10:58.139Z,11.70
2023-02-09T10:11:58.131Z,12.70
2023-02-09T10:12:58.132Z,12.30
2023-02-09T10:13:58.108Z,11.70
2023-02-09T10:14:58.094Z,12.10
2023-02-09T10:15:58.101Z,12.30
2023-02-09T10:16:58.119Z,11.70
2023-02-09T10:17:58.081Z,12.30
2023-02-09T10:18:58.059Z,13.60
2023-02-09T10:19:58.043Z,13.50
2023-02-09T10:20:58.028Z,13.00
2023-02-09T10:21:58.030Z,12.70
2023-02-09T10:22:58.018Z,12.30
2023-02-09T10:23:58.002Z,13.60
2023-02-09T10:24:57.985Z,13.20
2023-02-09T10:25:58.000Z,13.20
2023-02-09T10:26:57.964Z,12.80
2023-02-09T10:27:57.994Z,12.80
2023-02-09T10:28:57.949Z,13.00
2023-02-09T10:29:57.936Z,13.10
2023-02-09T10:30:58.093Z,13.00
2023-02-09T10:31:57.938Z,12.10
2023-02-09T10:32:57.911Z,12.60
2023-02-09T10:33:57.893Z,12.70
2023-02-09T10:34:57.885Z,12.60
2023-02-09T10:35:57.872Z,12.70
2023-02-09T10:36:57.852Z,12.80
2023-02-09T10:37:57.866Z,13.00
2023-02-09T10:38:57.981Z,12.50
2023-02-09T10:39:57.822Z,12.10
2023-02-09T10:40:57.807Z,13.00
2023-02-09T10:41:57.819Z,13.00
2023-02-09T10:42:57.820Z,12.50
2023-02-09T10:43:57.779Z,12.70
2023-02-09T10:44:57.762Z,12.90
2023-02-09T10:45:57.820Z,12.70
2023-02-09T10:46:57.769Z,12.50
2023-02-09T10:47:57.745Z,12.30
2023-02-09T10:48:57.739Z,12.50
2023-02-09T10:49:57.728Z,12.60
2023-02-09T10:50:57.710Z,12.00
2023-02-09T10:51:57.693Z,11.90
2023-02-09T10:52:57.695Z,12.40
2023-02-09T10:53:57.714Z,11.50
2023-02-09T10:54:57.662Z,12.50
2023-02-09T10:55:57.648Z,12.40
2023-02-09T10:56:57.634Z,11.80
2023-02-09T10:57:57.625Z,11.90
2023-02-09T10:58:57.621Z,12.10
2023-02-09T10:59:57.621Z,12.50
2023-02-09T11:00:57.587Z,12.70
2023-02-09T11:01:57.585Z,12.00
2023-02-09T11:02:57.582Z,12.00
2023-02-09T11:03:57.705Z,12.00
2023-02-09T11:04:57.546Z,11.60
2023-02-09T11:05:57.577Z,10.70
2023-02-09T11:06:57.529Z,12.70
2023-02-09T11:07:57.517Z,11.60
2023-02-09T11:08:57.550Z,11.60
2023-02-09T11:09:57.497Z,12.10
2023-02-09T11:10:57.485Z,12.10
2023-02-09T11:11:57.482Z,10.10
2023-02-09T11:12:57.463Z,12.20
2023-02-09T11:13:57.464Z,12.10
2023-02-09T11:14:57.442Z,11.70
2023-02-09T11:15:57.457Z,10.90
2023-02-09T11:16:57.419Z,11.50
2023-02-09T11:17:57.420Z,11.70
2023-02-09T11:18:57.408Z,11.20
2023-02-09T11:19:57.397Z,11.80
2023-02-09T11:20:57.377Z,11.50
2023-02-09T11:21:57.372Z,11.10
2023-02-09T11:22:57.360Z,11.20
2023-02-09T11:23:57.363Z,11.30
2023-02-09T11:24:57.346Z,10.50
2023-02-09T11:25:57.327Z,9.90
2023-02-09T11:26:57.310Z,11.40
2023-02-09T11:27:57.360Z,11.00
2023-02-09T11:28:57.305Z,10.80
2023-02-09T11:29:57.289Z,10.80
2023-02-09T11:30:57.396Z,11.50
2023-02-09T11:31:57.278Z,10.90
2023-02-09T11:32:57.250Z,10.40
2023-02-09T11:33:57.248Z,10.70
2023-02-09T11:34:57.247Z,10.60
2023-02-09T11:35:57.223Z,10.20
2023-02-09T11:36:57.209Z,10.60
2023-02-09T11:37:57.195Z,11.50
2023-02-09T11:38:57.227Z,10.40
2023-02-09T11:39:57.186Z,10.30
2023-02-09T11:40:57.177Z,10.70
2023-02-09T11:41:57.154Z,10.50
2023-02-09T11:42:57.149Z,11.20
2023-02-09T11:43:57.134Z,10.50
2023-02-09T11:44:57.140Z,11.10
2023-02-09T11:45:57.109Z,11.30
2023-02-09T11:46:57.105Z,11.00
2023-02-09T11:47:57.089Z,10.50
2023-02-09T11:48:57.097Z,10.80
2023-02-09T11:49:57.079Z,10.60
2023-02-09T11:50:57.064Z,11.00
2023-02-09T11:51:57.060Z,10.50
2023-02-09T11:52:57.048Z,10.90
2023-02-09T11:53:57.031Z,10.50
2023-02-09T11:54:57.028Z,10.80
2023-02-09T11:55:57.017Z,10.70
2023-02-09T11:56:56.995Z,10.60
2023-02-09T11:57:56.981Z,10.20
2023-02-09T11:58:57.049Z,10.70
2023-02-09T11:59:56.974Z,10.60
2023-02-09T12:01:10.006Z,10.00
2023-02-09T12:01:56.953Z,10.10
2023-02-09T12:02:56.995Z,10.90
2023-02-09T12:03:56.923Z,10.80
2023-02-09T12:04:56.920Z,10.60
2023-02-09T12:05:56.900Z,11.20
2023-02-09T12:06:56.962Z,10.60
2023-02-09T12:07:56.871Z,11.30
2023-02-09T12:08:56.861Z,11.20
2023-02-09T12:09:56.857Z,10.30
2023-02-09T12:10:56.845Z,10.90
2023-02-09T12:11:56.825Z,10.00
2023-02-09T12:12:56.938Z,11.10
2023-02-09T12:13:56.920Z,11.40
2023-02-09T12:14:56.894Z,10.00
2023-02-09T12:15:56.957Z,10.80
2023-02-09T12:16:56.947Z,11.00
2023-02-09T12:17:57.018Z,10.40
2023-02-09T12:18:56.962Z,9.90
2023-02-09T12:19:56.951Z,10.40
2023-02-09T12:20:56.986Z,10.00
2023-02-09T12:21:56.807Z,11.50
2023-02-09T12:22:56.806Z,10.80
2023-02-09T12:23:56.853Z,10.50
2023-02-09T12:24:56.850Z,10.90
2023-02-09T12:25:56.847Z,10.60
2023-02-09T12:26:56.842Z,9.90
2023-02-09T12:27:56.784Z,10.70
2023-02-09T12:28:56.870Z,10.60
2023-02-09T12:29:56.909Z,10.70
2023-02-09T12:30:56.733Z,10.30
2023-02-09T12:31:56.815Z,10.60
2023-02-09T12:32:56.772Z,10.70
2023-02-09T12:33:56.754Z,10.40
2023-02-09T12:34:56.838Z,10.40
2023-02-09T12:35:56.692Z,10.70
2023-02-09T12:36:56.548Z,10.60
2023-02-09T12:37:56.539Z,10.10
2023-02-09T12:39:04.149Z,10.40
2023-02-09T12:39:59.946Z,10.50
2023-02-09T12:40:56.515Z,10.50
2023-02-09T12:41:56.503Z,10.40
2023-02-09T12:42:56.493Z,10.70
2023-02-09T12:43:56.474Z,10.10
2023-02-09T12:44:57.363Z,10.30
2023-02-09T12:45:56.533Z,10.80
2023-02-09T12:46:56.448Z,10.90
2023-02-09T12:47:56.441Z,10.40
2023-02-09T12:48:56.421Z,10.20
2023-02-09T12:49:56.436Z,10.50
2023-02-09T12:50:56.418Z,10.20
2023-02-09T12:51:56.395Z,10.60
2023-02-09T12:52:56.366Z,10.40
2023-02-09T12:53:56.378Z,10.60
2023-02-09T12:54:56.347Z,10.50
2023-02-09T12:55:56.362Z,10.30
2023-02-09T12:56:56.327Z,11.00
2023-02-09T12:57:56.315Z,10.60
2023-02-09T12:58:56.309Z,10.80
2023-02-09T12:59:56.295Z,11.10
2023-02-09T13:00:56.449Z,10.60
2023-02-09T13:01:56.279Z,10.80
2023-02-09T13:02:56.277Z,10.30
2023-02-09T13:03:56.356Z,10.70
2023-02-09T13:04:56.241Z,10.70